Latest Weather Observations for Hillarys Point Boat Harbour

IDW60901

Issued at 11:21 pm WST Saturday 1 October 2016 (issued every 10 minutes, with the page automatically refreshed every 10 minutes)

About weather observations | Map of Perth area stations | Latest observations for Perth area | Other Formats
Station Details ID: 009265 Name: HILLARYS BOAT HARBOUR NTC AWS Lat: -31.83 Lon: 115.74 Height: 0.0 m
Data from the previous 72 hours. | See also: Recent months for locations in Western Australia
Date/Time
WST
Temp
°C
App
Temp
°C
Dew
Point
°C
Rel
Hum
%
Delta-T
°C
Wind Press
QNH
hPa
Press
MSL
hPa
Rain since
9am
mm
Dir  Spd
km/h
Gust
km/h
Spd
kts
Gust
kts
01/11:00pm 13.6 - - - - SW 33 48 18 26 1011.5 1011.5 -
01/10:30pm 13.6 - - - - SW 30 43 16 23 1011.4 1011.4 -
01/10:08pm 13.2 - - - - WSW 35 54 19 29 1011.2 1011.2 -
01/10:00pm 13.2 - - - - SW 37 54 20 29 1011.2 1011.2 -
01/09:35pm 13.5 - - - - SW 30 52 16 28 1010.9 1010.9 -
01/09:30pm 13.6 - - - - SW 28 41 15 22 1011.0 1011.0 -
01/09:00pm 13.6 - - - - SW 30 48 16 26 1010.6 1010.6 -
01/08:30pm 13.7 - - - - SW 30 52 16 28 1010.0 1010.0 -
01/08:00pm 13.8 - - - - SW 30 50 16 27 1009.6 1009.6 -
01/07:30pm 13.3 - - - - SW 32 50 17 27 1009.3 1009.3 -
01/07:15pm 13.8 - - - - SW 37 59 20 32 1008.9 1008.9 -
01/07:00pm 13.7 - - - - SW 37 54 20 29 1008.8 1008.8 -
01/06:30pm 12.8 - - - - SW 33 52 18 28 1008.5 1008.5 -
01/06:00pm 13.8 - - - - WSW 41 59 22 32 1007.9 1007.9 -
01/05:30pm 12.5 - - - - SW 39 63 21 34 1007.9 1007.9 -
01/05:02pm 13.7 - - - - WSW 46 65 25 35 1007.5 1007.5 -
01/05:00pm 13.6 - - - - WSW 48 65 26 35 1007.5 1007.5 -
01/04:33pm 12.5 - - - - SW 32 54 17 29 1007.6 1007.6 -
01/04:30pm 12.1 - - - - SW 32 46 17 25 1007.7 1007.7 -
01/04:08pm 11.2 - - - - WSW 37 69 20 37 1007.6 1007.6 -
01/04:00pm 11.9 - - - - WSW 30 50 16 27 1006.9 1006.9 -
01/03:43pm 12.7 - - - - WSW 43 61 23 33 1007.2 1007.2 -
01/03:30pm 14.2 - - - - WSW 44 61 24 33 1006.8 1006.8 -
01/03:21pm 14.2 - - - - WSW 39 57 21 31 1006.8 1006.8 -
01/03:00pm 13.1 - - - - WSW 43 57 23 31 1006.8 1006.8 -
01/02:51pm 11.7 - - - - WSW 56 80 30 43 1007.1 1007.1 -
01/02:48pm 10.4 - - - - WSW 56 80 30 43 1007.2 1007.2 -
01/02:43pm 11.9 - - - - WSW 48 80 26 43 1006.8 1006.8 -
01/02:30pm 14.2 - - - - WSW 43 61 23 33 1006.3 1006.3 -
01/02:07pm 13.7 - - - - WSW 41 59 22 32 1006.3 1006.3 -
01/02:00pm 13.6 - - - - SW 39 56 21 30 1006.3 1006.3 -
01/01:30pm 13.6 - - - - WSW 39 57 21 31 1006.1 1006.1 -
01/01:17pm 13.2 - - - - SW 43 61 23 33 1006.2 1006.2 -
01/01:00pm 13.8 - - - - WSW 46 63 25 34 1005.8 1005.8 -
01/12:30pm 12.1 - - - - W 35 61 19 33 1006.1 1006.1 -
01/12:01pm 14.3 - - - - WSW 44 65 24 35 1005.6 1005.6 -
01/12:00pm 14.4 - - - - WSW 43 57 23 31 1005.6 1005.6 -
01/11:30am 13.7 - - - - SW 37 57 20 31 1005.5 1005.5 -
01/11:00am 13.6 - - - - WSW 46 72 25 39 1005.5 1005.5 -
01/10:49am 15.3 - - - - WSW 43 63 23 34 1005.4 1005.4 -
01/10:30am 15.2 - - - - WSW 48 63 26 34 1005.4 1005.4 -
01/10:00am 15.3 - - - - WSW 50 69 27 37 1005.2 1005.2 -
01/09:35am 15.4 - - - - WSW 50 70 27 38 1005.0 1005.0 -
01/09:30am 15.7 - - - - WSW 52 70 28 38 1004.8 1004.8 -
01/09:03am 15.9 - - - - WSW 57 78 31 42 1004.5 1004.5 -
01/09:00am 15.8 - - - - WSW 57 72 31 39 1004.4 1004.4 -
01/08:30am 15.5 - - - - WSW 43 63 23 34 1004.1 1004.1 -
01/08:00am 16.7 - - - - WSW 37 67 20 36 1003.6 1003.6 -
01/07:30am 15.6 - - - - W 41 59 22 32 1003.4 1003.4 -
01/07:00am 15.8 - - - - W 33 59 18 32 1003.1 1003.1 -
01/06:30am 16.7 - - - - W 33 54 18 29 1002.7 1002.7 -
01/06:19am 16.6 - - - - WNW 28 48 15 26 1002.7 1002.7 -
01/06:00am 15.9 - - - - WNW 28 46 15 25 1002.6 1002.6 -
01/05:30am 16.6 - - - - WNW 33 57 18 31 1002.8 1002.8 -
01/05:02am 16.6 - - - - WNW 28 46 15 25 1002.8 1002.8 -
01/05:00am 16.6 - - - - WNW 30 48 16 26 1002.7 1002.7 -
01/04:55am 16.6 - - - - WNW 28 48 15 26 1002.5 1002.5 -
01/04:30am 16.6 - - - - WNW 26 44 14 24 1002.5 1002.5 -
01/04:00am 15.8 - - - - W 28 48 15 26 1002.7 1002.7 -
01/03:43am 16.5 - - - - WNW 30 52 16 28 1002.9 1002.9 -
01/03:30am 16.6 - - - - WNW 24 46 13 25 1002.9 1002.9 -
01/03:00am 16.5 - - - - WNW 28 43 15 23 1003.4 1003.4 -
01/02:30am 16.5 - - - - WNW 24 39 13 21 1003.7 1003.7 -
01/02:00am 16.5 - - - - WNW 22 37 12 20 1003.9 1003.9 -
01/01:30am 16.4 - - - - WNW 22 33 12 18 1004.1 1004.1 -
01/01:00am 16.5 - - - - W 22 37 12 20 1004.3 1004.3 -
01/12:30am 16.5 - - - - W 20 32 11 17 1004.5 1004.5 -
01/12:00am 16.7 - - - - W 24 39 13 21 1004.8 1004.8 -
 
Date/Time
WST
Temp
°C
App
Temp
°C
Dew
Point
°C
Rel
Hum
%
Delta-T
°C
Wind Press
QNH
hPa
Press
MSL
hPa
Rain since
9am
mm
Dir  Spd
km/h
Gust
km/h
Spd
kts
Gust
kts
30/11:30pm 16.6 - - - - W 24 33 13 18 1005.1 1005.1 -
30/11:00pm 16.4 - - - - W 19 30 10 16 1005.4 1005.4 -
30/10:30pm 16.2 - - - - W 22 32 12 17 1005.8 1005.8 -
30/10:00pm 16.6 - - - - W 20 30 11 16 1006.3 1006.3 -
30/09:30pm 16.7 - - - - W 20 32 11 17 1006.7 1006.7 -
30/09:00pm 16.4 - - - - W 20 28 11 15 1006.8 1006.8 -
30/08:30pm 15.0 - - - - WSW 15 24 8 13 1007.0 1007.0 -
30/08:05pm 14.9 - - - - W 22 50 12 27 1007.0 1007.0 -
30/08:00pm 16.1 - - - - WNW 17 26 9 14 1006.9 1006.9 -
30/07:30pm 16.3 - - - - W 15 24 8 13 1006.9 1006.9 -
30/07:00pm 15.3 - - - - W 15 24 8 13 1006.9 1006.9 -
30/06:30pm 15.0 - - - - W 24 41 13 22 1007.1 1007.1 -
30/06:24pm 15.0 - - - - WSW 28 46 15 25 1007.0 1007.0 -
30/06:00pm 16.3 - - - - W 17 24 9 13 1006.6 1006.6 -
30/05:30pm 16.6 - - - - WSW 26 43 14 23 1006.7 1006.7 -
30/05:00pm 16.4 - - - - WSW 20 32 11 17 1006.6 1006.6 -
30/04:30pm 16.5 - - - - WSW 20 35 11 19 1006.6 1006.6 -
30/04:00pm 14.9 - - - - WSW 28 44 15 24 1006.7 1006.7 -
30/03:30pm 15.6 - - - - W 24 44 13 24 1006.8 1006.8 -
30/03:00pm 15.3 - - - - WSW 28 43 15 23 1007.1 1007.1 -
30/02:30pm 16.9 - - - - W 20 32 11 17 1006.9 1006.9 -
30/02:00pm 16.9 - - - - W 20 30 11 16 1007.0 1007.0 -
30/01:30pm 16.9 - - - - WSW 22 35 12 19 1007.2 1007.2 -
30/01:00pm 15.8 - - - - W 22 43 12 23 1007.4 1007.4 -
30/12:30pm 16.3 - - - - W 20 33 11 18 1007.6 1007.6 -
30/12:00pm 14.6 - - - - WNW 22 37 12 20 1007.9 1007.9 -
30/11:30am 15.3 - - - - WNW 20 37 11 20 1008.2 1008.2 -
30/11:00am 16.8 - - - - NW 19 35 10 19 1008.1 1008.1 -
30/10:30am 16.5 - - - - NW 19 32 10 17 1008.4 1008.4 -
30/10:00am 16.4 - - - - NW 19 32 10 17 1008.5 1008.5 -
30/09:30am 16.3 - - - - NW 17 30 9 16 1008.5 1008.5 -
30/09:00am 16.1 - - - - WNW 19 30 10 16 1008.5 1008.5 -
30/08:30am 16.0 - - - - NW 15 26 8 14 1008.5 1008.5 -
30/08:00am 15.7 - - - - NW 15 26 8 14 1008.7 1008.7 -
30/07:30am 15.6 - - - - WNW 13 24 7 13 1008.6 1008.6 -
30/07:00am 15.3 - - - - WNW 17 28 9 15 1008.6 1008.6 -
30/06:30am 15.3 - - - - WNW 15 24 8 13 1008.5 1008.5 -
30/06:00am 15.3 - - - - W 13 22 7 12 1008.6 1008.6 -
30/05:30am 15.3 - - - - W 19 28 10 15 1008.6 1008.6 -
30/05:00am 15.4 - - - - W 17 28 9 15 1009.1 1009.1 -
30/04:30am 15.3 - - - - W 15 24 8 13 1009.1 1009.1 -
30/04:00am 15.1 - - - - W 13 22 7 12 1009.4 1009.4 -
30/03:30am 11.6 - - - - ENE 7 9 4 5 1009.8 1009.8 -
30/03:00am 11.3 - - - - NE 6 9 3 5 1010.0 1010.0 -
30/02:30am 10.8 - - - - NE 6 9 3 5 1010.2 1010.2 -
30/02:00am 11.3 - - - - NE 6 9 3 5 1010.6 1010.6 -
30/01:30am 11.3 - - - - NE 6 9 3 5 1010.6 1010.6 -
30/01:00am 11.4 - - - - NE 6 7 3 4 1011.0 1011.0 -
30/12:30am 11.4 - - - - NE 4 7 2 4 1011.3 1011.3 -
30/12:00am 11.5 - - - - NE 4 7 2 4 1011.7 1011.7 -
 
Date/Time
WST
Temp
°C
App
Temp
°C
Dew
Point
°C
Rel
Hum
%
Delta-T
°C
Wind Press
QNH
hPa
Press
MSL
hPa
Rain since
9am
mm
Dir  Spd
km/h
Gust
km/h
Spd
kts
Gust
kts
29/11:30pm 11.8 - - - - ENE 6 9 3 5 1012.1 1012.1 -
29/11:00pm 11.9 - - - - ENE 6 9 3 5 1012.4 1012.4 -
29/10:30pm 12.3 - - - - ENE 4 6 2 3 1012.9 1012.9 -
29/10:00pm 13.3 - - - - ENE 4 9 2 5 1013.3 1013.3 -
29/09:30pm 15.2 - - - - SSW 7 13 4 7 1013.7 1013.7 -
29/09:00pm 15.3 - - - - SW 9 15 5 8 1014.2 1014.2 -
29/08:30pm 15.1 - - - - SSW 6 13 3 7 1014.4 1014.4 -
29/08:00pm 15.2 - - - - SSW 7 15 4 8 1014.5 1014.5 -
29/07:30pm 15.1 - - - - SSW 7 15 4 8 1014.5 1014.5 -
29/07:00pm 15.1 - - - - SW 9 17 5 9 1014.5 1014.5 -
29/06:30pm 15.0 - - - - SW 13 20 7 11 1014.5 1014.5 -
29/06:00pm 15.0 - - - - SW 13 19 7 10 1014.3 1014.3 -
29/05:30pm 15.1 - - - - SW 15 20 8 11 1014.4 1014.4 -
29/05:00pm 15.2 - - - - SW 13 19 7 10 1014.5 1014.5 -
29/04:30pm 15.1 - - - - SW 15 20 8 11 1014.5 1014.5 -
29/04:00pm 15.4 - - - - SW 11 17 6 9 1014.6 1014.6 -
29/03:30pm 15.4 - - - - SW 9 17 5 9 1015.1 1015.1 -
29/03:00pm 15.2 - - - - SW 11 17 6 9 1015.3 1015.3 -
29/02:30pm 15.3 - - - - SW 15 22 8 12 1016.2 1016.2 -
29/02:00pm 15.1 - - - - SW 13 20 7 11 1016.9 1016.9 -
29/01:30pm 14.6 - - - - WSW 13 17 7 9 1017.3 1017.3 -
29/01:00pm 14.7 - - - - SW 11 17 6 9 1017.8 1017.8 -
29/12:30pm 14.5 - - - - WSW 7 13 4 7 1018.2 1018.2 -
29/12:00pm 16.0 - - - - ENE 4 7 2 4 1018.8 1018.8 -
29/11:30am 15.5 - - - - NW 4 13 2 7 1019.4 1019.4 -
29/11:00am 14.7 - - - - NNE 9 17 5 9 1020.0 1020.0 -
29/10:30am 14.6 - - - - ENE 7 15 4 8 1020.9 1020.9 -
29/10:00am 13.7 - - - - NE 9 17 5 9 1021.5 1021.5 -
29/09:30am 13.0 - - - - ENE 15 24 8 13 1021.3 1021.3 -
29/09:00am 12.0 - - - - ENE 17 28 9 15 1021.2 1021.2 -
29/08:30am 11.0 - - - - ENE 19 30 10 16 1021.2 1021.2 -
29/08:00am 9.8 - - - - ENE 19 28 10 15 1021.2 1021.2 -
29/07:30am 8.7 - - - - ENE 17 28 9 15 1021.1 1021.1 -
29/07:00am 8.1 - - - - ENE 17 26 9 14 1021.6 1021.6 -
29/06:30am 7.6 - - - - ENE 17 26 9 14 1021.1 1021.1 -
29/06:00am 7.4 - - - - ENE 17 24 9 13 1021.3 1021.3 -
29/05:30am 7.4 - - - - ENE 15 24 8 13 1021.4 1021.4 -
29/05:00am 7.1 - - - - ENE 13 20 7 11 1021.2 1021.2 -
29/04:30am 7.3 - - - - ENE 13 19 7 10 1021.1 1021.1 -
29/04:00am 7.8 - - - - ENE 13 20 7 11 1021.0 1021.0 -
29/03:30am 8.2 - - - - ENE 13 19 7 10 1021.0 1021.0 -
29/03:00am 8.5 - - - - ENE 11 17 6 9 1020.9 1020.9 -
29/02:30am 8.7 - - - - ENE 11 19 6 10 1021.2 1021.2 -
29/02:00am 8.9 - - - - ENE 7 11 4 6 1021.4 1021.4 -
29/01:30am 8.9 - - - - ENE 6 9 3 5 1021.8 1021.8 -
29/01:00am 9.4 - - - - ENE 7 11 4 6 1022.0 1022.0 -
29/12:30am 10.6 - - - - E 4 7 2 4 1022.1 1022.1 -
29/12:00am 10.4 - - - - ENE 4 6 2 3 1022.4 1022.4 -
 
Date/Time
WST
Temp
°C
App
Temp
°C
Dew
Point
°C
Rel
Hum
%
Delta-T
°C
Wind Press
QNH
hPa
Press
MSL
hPa
Rain since
9am
mm
Dir  Spd
km/h
Gust
km/h
Spd
kts
Gust
kts
28/11:30pm 10.9 - - - - E 4 6 2 3 1022.5 1022.5 -

Latest Capital City Observations: Canberra | Sydney | Melbourne | Brisbane | Adelaide | Perth | Hobart | Darwin

Other Formats:

Comma delimited format used in spreadsheet applications
http://www.bom.gov.au/fwo/IDW60901/IDW60901.95605.axf

JavaScript Object Notation format (JSON) in row-major order
http://www.bom.gov.au/fwo/IDW60901/IDW60901.95605.json